Newbury, New Hampshire
Current Conditions -  °F | °C
As of 11:09 AM on Monday 24 Nov 2014 (Local Time) from KVSF Reporting Station
Haze Haze  
Wind Chill: 46°   Ceiling: 1200
Heat Index: 48°   Visibility: 3mi
Dew Point: 46°   Wind: 5mph
Humidity: 93%   Direction: 350°N
Pressure: 29.6"   Gusts: NA
Location:  43.32°N, 72.04°W
Report Text: KVSF 241609Z AUTO 35004KT 3SM BR SCT007 OVC012 09/08 A2960 RMK AO2 T00890078
Loading
Personal Weather Stations






























Interactive Weather Map New forecast layout! Learn more

10-Day Weather Forecast

Advertisements
Track Severe Weather on mobile